This is the latest recevied weather packets stored in our database for station/object SP5IZJ-2. If no packets are shown the sender has not sent any weather packets the latest 10 day(s).
| Time | Temp. | Humidity | Pressure | Rain* | Wind** | Luminosity | Snow |
|---|---|---|---|---|---|---|---|
| 1777946529 | 9.44° C | 75% | 1003.4 hPa | 0 mm | - | - | - |
| 1777946109 | 9.44° C | 76% | 1003.4 hPa | 0 mm | - | - | - |
| 1777945690 | 9.44° C | 75% | 1003.4 hPa | 0 mm | - | - | - |
| 1777945274 | 9.44° C | 75% | 1003.4 hPa | 0 mm | - | - | - |
| 1777944850 | 10° C | 74% | 1003.4 hPa | 0 mm | - | - | - |
| 1777943590 | 10° C | 74% | 1003.3 hPa | 0 mm | - | - | - |
| 1777943171 | 100° C | 100% | 0 hPa | 0 mm | - | - | - |
| 1777942751 | 10.56° C | 73% | 1003.2 hPa | 0 mm | - | - | - |
| 1777941911 | 11.11° C | 72% | 1003 hPa | 0 mm | - | - | - |
| 1777941491 | 11.11° C | 71% | 1003.1 hPa | 0 mm | - | - | - |
| 1777941072 | 11.11° C | 72% | 1003.1 hPa | 0 mm | - | - | - |
| 1777940652 | 11.67° C | 72% | 1003.1 hPa | 0 mm | - | - | - |
| 1777939812 | 11.67° C | 71% | 1003.5 hPa | 0 mm | - | - | - |
| 1777938977 | 11.67° C | 70% | 1003.4 hPa | 0 mm | - | - | - |
| 1777938553 | 11.67° C | 69% | 1003.5 hPa | 0 mm | - | - | - |
| 1777937713 | 11.67° C | 68% | 1003.4 hPa | 0 mm | - | - | - |
| 1777935614 | 12.22° C | 67% | 1003.6 hPa | 0 mm | - | - | - |
| 1777935194 | 12.22° C | 66% | 1003.8 hPa | 0 mm | - | - | - |
| 1777934354 | 12.22° C | 64% | 1003.7 hPa | 0 mm | - | - | - |
| 1777932677 | 12.78° C | 61% | 1003.6 hPa | 0 mm | - | - | - |
| 1777931835 | 13.33° C | 60% | 1003.5 hPa | 0 mm | - | - | - |
| 1777930996 | 13.89° C | 59% | 1003.8 hPa | 0 mm | - | - | - |
| 1777930578 | 13.89° C | 59% | 1003.8 hPa | 0 mm | - | - | - |
| 1777929736 | 13.89° C | 58% | 1003.7 hPa | 0 mm | - | - | - |
| 1777929323 | 14.44° C | 58% | 1003.8 hPa | 0 mm | - | - | - |
* Rain latest hour (hover to see other rain measurements)
** Current wind speed in m/s (hover to see current wind gust speed)